createdAt,value
2018-04-28T00:00:37.936Z,4.45
2018-04-28T00:01:47.940Z,4.32
2018-04-28T00:02:57.944Z,4.32
2018-04-28T00:04:07.411Z,4.34
2018-04-28T00:05:16.890Z,4.3
2018-04-28T00:06:26.901Z,4.34
2018-04-28T00:07:36.641Z,4.31
2018-04-28T00:08:46.380Z,4.31
2018-04-28T00:09:56.383Z,4.28
2018-04-28T00:11:05.593Z,4.27
2018-04-28T00:12:15.607Z,4.25
2018-04-28T00:13:25.353Z,4.25
2018-04-28T00:14:35.359Z,4.22
2018-04-28T00:15:45.096Z,4.18
2018-04-28T00:16:54.840Z,4.09
2018-04-28T00:18:04.352Z,4.12
2018-04-28T00:19:14.360Z,4.07
2018-04-28T00:20:24.363Z,4.03
2018-04-28T00:21:34.367Z,3.96
2018-04-28T00:22:44.385Z,4
2018-04-28T00:23:54.390Z,3.95
2018-04-28T00:25:04.130Z,3.89
2018-04-28T00:26:14.136Z,3.94
2018-04-28T00:27:23.900Z,3.89
2018-04-28T00:28:33.911Z,3.85
2018-04-28T00:29:43.911Z,3.81
2018-04-28T00:30:53.379Z,3.78
2018-04-28T00:32:03.392Z,3.76
2018-04-28T00:33:13.401Z,3.74
2018-04-28T00:34:22.603Z,3.74
2018-04-28T00:35:32.634Z,3.71
2018-04-28T00:36:42.641Z,3.55
2018-04-28T00:37:52.379Z,3.67
2018-04-28T00:39:01.849Z,3.59
2018-04-28T00:40:11.855Z,3.55
2018-04-28T00:41:21.595Z,3.58
2018-04-28T00:42:30.794Z,3.58
2018-04-28T00:43:40.799Z,3.56
2018-04-28T00:44:50.806Z,3.53
2018-04-28T00:46:00.272Z,3.52
2018-04-28T00:47:10.026Z,3.55
2018-04-28T00:48:19.818Z,3.5
2018-04-28T00:49:29.574Z,3.53
2018-04-28T00:50:39.584Z,3.48
2018-04-28T00:51:49.606Z,3.43
2018-04-28T00:52:59.394Z,3.46
2018-04-28T00:54:08.863Z,3.34
2018-04-28T00:55:18.598Z,3.33
2018-04-28T00:56:28.606Z,3.33
2018-04-28T00:57:38.616Z,3.34
2018-04-28T00:58:48.618Z,3.24
2018-04-28T00:59:58.623Z,3.15
2018-04-28T01:01:08.093Z,3.18
2018-04-28T01:02:18.100Z,3.16
2018-04-28T01:03:27.846Z,3.15
2018-04-28T01:04:37.053Z,3.21
2018-04-28T01:05:46.790Z,3.05
2018-04-28T01:06:56.800Z,3.05
2018-04-28T01:08:06.070Z,3.06
2018-04-28T01:09:16.083Z,3.09
2018-04-28T01:10:25.559Z,3
2018-04-28T01:11:35.028Z,3
2018-04-28T01:12:45.036Z,2.97
2018-04-28T01:13:55.041Z,2.97
2018-04-28T01:15:04.777Z,2.97
2018-04-28T01:16:14.512Z,3.01
2018-04-28T01:17:24.616Z,2.91
2018-04-28T01:18:34.625Z,2.94
2018-04-28T01:19:44.362Z,2.98
2018-04-28T01:20:53.828Z,2.95
2018-04-28T01:22:03.832Z,2.93
2018-04-28T01:23:13.566Z,2.98
2018-04-28T01:24:23.601Z,2.95
2018-04-28T01:25:33.380Z,2.98
2018-04-28T01:26:43.123Z,2.97
2018-04-28T01:27:52.861Z,3.09
2018-04-28T01:29:02.865Z,3.08
2018-04-28T01:30:12.604Z,2.93
2018-04-28T01:31:22.339Z,2.95
2018-04-28T01:32:32.077Z,2.97
2018-04-28T01:33:42.079Z,2.97
2018-04-28T01:34:51.814Z,2.95
2018-04-28T01:36:01.030Z,2.95
2018-04-28T01:37:11.050Z,2.95
2018-04-28T01:38:21.054Z,2.98
2018-04-28T01:39:30.794Z,3
2018-04-28T01:40:40.800Z,2.87
2018-04-28T01:41:50.813Z,2.95
2018-04-28T01:43:00.554Z,2.87
2018-04-28T01:44:10.295Z,3.01
2018-04-28T01:45:19.770Z,2.9
2018-04-28T01:46:29.779Z,2.88
2018-04-28T01:47:39.514Z,2.9
2018-04-28T01:48:48.992Z,2.87
2018-04-28T01:49:58.732Z,2.83
2018-04-28T01:51:08.468Z,2.85
2018-04-28T01:52:18.497Z,2.83
2018-04-28T01:53:27.968Z,2.9
2018-04-28T01:54:37.435Z,2.83
2018-04-28T01:55:46.913Z,2.88
2018-04-28T01:56:56.647Z,2.76
2018-04-28T01:58:05.856Z,2.88
2018-04-28T01:59:15.865Z,2.9
2018-04-28T02:00:25.888Z,2.91
2018-04-28T02:01:35.636Z,2.9
2018-04-28T02:02:45.376Z,2.9
2018-04-28T02:03:55.384Z,2.77
2018-04-28T02:05:04.853Z,2.77
2018-04-28T02:06:14.597Z,2.75
2018-04-28T02:07:24.336Z,2.8
2018-04-28T02:08:34.090Z,2.76
2018-04-28T02:09:44.094Z,2.82
2018-04-28T02:10:53.840Z,2.69
2018-04-28T02:12:03.663Z,2.69
2018-04-28T02:13:13.675Z,2.72
2018-04-28T02:14:23.683Z,2.75
2018-04-28T02:15:33.538Z,2.65
2018-04-28T02:16:43.004Z,2.7
2018-04-28T02:17:51.943Z,2.68
2018-04-28T02:19:01.945Z,2.64
2018-04-28T02:20:11.685Z,2.58
2018-04-28T02:21:21.476Z,2.62
2018-04-28T02:22:30.949Z,2.68
2018-04-28T02:23:40.695Z,2.64
2018-04-28T02:24:50.163Z,2.68
2018-04-28T02:25:59.898Z,2.61
2018-04-28T02:27:09.656Z,2.58
2018-04-28T02:28:19.682Z,2.58
2018-04-28T02:29:28.882Z,2.57
2018-04-28T02:30:38.354Z,2.52
2018-04-28T02:31:48.403Z,2.59
2018-04-28T02:32:57.889Z,2.58
2018-04-28T02:34:07.627Z,2.58
2018-04-28T02:35:17.189Z,2.59
2018-04-28T02:36:26.666Z,2.54
2018-04-28T02:37:36.683Z,2.61
2018-04-28T02:38:46.703Z,2.58
2018-04-28T02:39:56.179Z,2.61
2018-04-28T02:41:05.656Z,2.55
2018-04-28T02:42:15.392Z,2.59
2018-04-28T02:43:25.396Z,2.54
2018-04-28T02:44:35.548Z,2.47
2018-04-28T02:45:45.308Z,2.52
2018-04-28T02:46:55.052Z,2.44
2018-04-28T02:48:05.060Z,2.51
2018-04-28T02:49:15.095Z,2.44
2018-04-28T02:50:25.106Z,2.44
2018-04-28T02:51:34.864Z,2.5
2018-04-28T02:52:44.873Z,2.41
2018-04-28T02:53:54.612Z,2.37
2018-04-28T02:55:04.371Z,2.36
2018-04-28T02:56:14.378Z,2.43
2018-04-28T02:57:23.852Z,2.34
2018-04-28T02:58:33.328Z,2.36
2018-04-28T02:59:43.339Z,2.33
2018-04-28T03:03:28.491Z,2.25
2018-04-28T03:04:38.080Z,2.23
2018-04-28T03:05:48.090Z,2.16
2018-04-28T03:06:57.832Z,2.26
2018-04-28T03:08:07.569Z,2.19
2018-04-28T03:09:17.314Z,2.22
2018-04-28T03:10:27.069Z,2.19
2018-04-28T03:11:37.081Z,2.18
2018-04-28T03:12:47.087Z,2.25
2018-04-28T03:13:57.094Z,2.19
2018-04-28T03:15:06.296Z,2.22
2018-04-28T03:16:16.044Z,2.32
2018-04-28T03:17:25.779Z,2.33
2018-04-28T03:18:35.244Z,2.36
2018-04-28T03:19:44.984Z,2.34
2018-04-28T03:20:54.721Z,2.34
2018-04-28T03:22:04.220Z,2.34
2018-04-28T03:23:13.683Z,2.37
2018-04-28T03:24:23.401Z,2.34
2018-04-28T03:25:33.310Z,2.3
2018-04-28T03:26:43.044Z,2.28
2018-04-28T03:27:52.775Z,2.37
2018-04-28T03:29:02.778Z,2.33
2018-04-28T03:30:12.523Z,2.4
2018-04-28T03:31:22.273Z,2.36
2018-04-28T03:32:32.276Z,2.4
2018-04-28T03:33:42.015Z,2.4
2018-04-28T03:34:52.024Z,2.37
2018-04-28T03:36:02.030Z,2.37
2018-04-28T03:37:11.508Z,2.43
2018-04-28T03:38:21.264Z,2.47
2018-04-28T03:39:31.000Z,2.46
2018-04-28T03:40:41.004Z,2.47
2018-04-28T03:41:51.004Z,2.55
2018-04-28T03:43:00.747Z,2.54
2018-04-28T03:44:10.754Z,2.62
2018-04-28T03:45:20.490Z,2.68
2018-04-28T03:46:30.232Z,2.64
2018-04-28T03:47:40.234Z,2.62
2018-04-28T03:48:50.255Z,2.62
2018-04-28T03:50:00.002Z,2.64
2018-04-28T03:51:10.004Z,2.73
2018-04-28T03:52:20.025Z,2.8
2018-04-28T03:53:30.173Z,2.79
2018-04-28T03:54:40.418Z,2.76
2018-04-28T03:55:50.168Z,2.79
2018-04-28T03:57:00.173Z,2.76
2018-04-28T03:58:09.381Z,2.8
2018-04-28T03:59:19.121Z,2.79
2018-04-28T04:00:28.856Z,2.75
2018-04-28T04:01:38.861Z,2.77
2018-04-28T04:02:48.873Z,2.77
2018-04-28T04:03:58.878Z,2.72
2018-04-28T04:05:08.612Z,2.75
2018-04-28T04:06:18.620Z,2.76
2018-04-28T04:07:28.622Z,2.62
2018-04-28T04:08:38.626Z,2.73
2018-04-28T04:09:48.702Z,2.73
2018-04-28T04:10:58.711Z,2.73
2018-04-28T04:12:07.915Z,2.73
2018-04-28T04:13:17.751Z,2.77
2018-04-28T04:14:27.483Z,2.88
2018-04-28T04:15:37.498Z,2.98
2018-04-28T04:16:47.505Z,2.98
2018-04-28T04:17:56.972Z,3.18
2018-04-28T04:19:06.988Z,3.13
2018-04-28T04:20:16.459Z,3.29
2018-04-28T04:21:26.195Z,3.22
2018-04-28T04:22:35.665Z,3.15
2018-04-28T04:23:45.403Z,3.22
2018-04-28T04:24:55.405Z,3.19
2018-04-28T04:26:05.226Z,3.22
2018-04-28T04:27:14.423Z,3.21
2018-04-28T04:28:24.161Z,3.29
2018-04-28T04:29:33.896Z,3.15
2018-04-28T04:30:43.911Z,3.19
2018-04-28T04:31:53.385Z,3.22
2018-04-28T04:33:02.948Z,3.26
2018-04-28T04:34:12.952Z,3.19
2018-04-28T04:35:22.693Z,3.29
2018-04-28T04:36:32.509Z,3.37
2018-04-28T04:37:42.307Z,3.31
2018-04-28T04:38:52.139Z,3.45
2018-04-28T04:40:01.951Z,3.48
2018-04-28T04:41:12.033Z,3.58
2018-04-28T04:42:22.087Z,3.59
2018-04-28T04:43:32.089Z,3.59
2018-04-28T04:44:41.904Z,3.68
2018-04-28T04:45:51.915Z,3.61
2018-04-28T04:47:01.458Z,3.55
2018-04-28T04:48:11.136Z,3.52
2018-04-28T04:49:21.153Z,3.46
2018-04-28T04:50:30.966Z,3.49
2018-04-28T04:51:40.991Z,3.55
2018-04-28T04:52:50.732Z,3.52
2018-04-28T04:54:00.735Z,3.56
2018-04-28T04:55:10.477Z,3.49
2018-04-28T04:56:20.213Z,3.46
2018-04-28T04:57:30.256Z,3.46
2018-04-28T04:58:39.995Z,3.49
2018-04-28T04:59:49.733Z,3.45
2018-04-28T05:00:59.740Z,3.3
2018-04-28T05:02:09.480Z,3.33
2018-04-28T05:03:19.219Z,3.34
2018-04-28T05:04:28.691Z,3.46
2018-04-28T05:05:38.421Z,3.4
2018-04-28T05:06:48.159Z,3.46
2018-04-28T05:07:57.894Z,3.46
2018-04-28T05:09:07.908Z,3.46
2018-04-28T05:10:17.644Z,3.56
2018-04-28T05:11:27.222Z,3.56
2018-04-28T05:12:36.956Z,3.67
2018-04-28T05:13:46.706Z,3.58
2018-04-28T05:14:56.443Z,3.58
2018-04-28T05:16:06.182Z,3.7
2018-04-28T05:17:15.932Z,3.61
2018-04-28T05:18:26.019Z,3.55
2018-04-28T05:19:36.024Z,3.64
2018-04-28T05:20:46.025Z,3.53
2018-04-28T05:21:56.026Z,3.46
2018-04-28T05:23:05.764Z,3.4
2018-04-28T05:24:15.770Z,3.34
2018-04-28T05:25:25.777Z,3.33
2018-04-28T05:26:35.777Z,3.18
2018-04-28T05:27:45.257Z,3.3
2018-04-28T05:28:55.000Z,3.22
2018-04-28T05:30:05.018Z,3.21
2018-04-28T05:31:15.025Z,3.21
2018-04-28T05:32:25.029Z,3.22
2018-04-28T05:33:35.031Z,3.21
2018-04-28T05:34:44.783Z,3.29
2018-04-28T05:35:54.981Z,3.34
2018-04-28T05:37:04.532Z,3.31
2018-04-28T05:38:14.547Z,3.11
2018-04-28T05:39:24.282Z,3.27
2018-04-28T05:40:34.014Z,3.29
2018-04-28T05:41:43.762Z,3.12
2018-04-28T05:42:53.497Z,3.26
2018-04-28T05:44:03.496Z,3.29
2018-04-28T05:45:13.499Z,3.16
2018-04-28T05:46:23.798Z,3.03
2018-04-28T05:47:33.540Z,2.98
2018-04-28T05:48:43.548Z,2.93
2018-04-28T05:49:53.557Z,2.97
2018-04-28T05:51:03.292Z,2.85
2018-04-28T05:52:12.839Z,2.98
2018-04-28T05:53:22.857Z,2.98
2018-04-28T05:54:32.859Z,2.88
2018-04-28T05:55:42.869Z,2.9
2018-04-28T05:56:52.337Z,2.9
2018-04-28T05:58:01.807Z,2.97
2018-04-28T05:59:11.818Z,2.94
2018-04-28T06:00:21.820Z,3.03
2018-04-28T06:01:31.614Z,3.05
2018-04-28T06:02:41.613Z,3.03
2018-04-28T06:03:51.358Z,3.12
2018-04-28T06:05:01.359Z,3.11
2018-04-28T06:06:10.566Z,3.19
2018-04-28T06:07:20.576Z,3.24
2018-04-28T06:08:30.326Z,3.31
2018-04-28T06:09:40.333Z,3.36
2018-04-28T06:10:50.341Z,3.33
2018-04-28T06:12:00.360Z,3.29
2018-04-28T06:13:09.562Z,3.46
2018-04-28T06:14:19.148Z,3.59
2018-04-28T06:15:28.886Z,3.66
2018-04-28T06:16:38.362Z,3.81
2018-04-28T06:17:48.099Z,3.94
2018-04-28T06:18:57.838Z,3.89
2018-04-28T06:20:07.233Z,3.94
2018-04-28T06:21:17.253Z,4.12
2018-04-28T06:22:27.251Z,4.12
2018-04-28T06:23:37.253Z,4.16
2018-04-28T06:24:46.724Z,4.25
2018-04-28T06:25:56.768Z,4.32
2018-04-28T06:27:07.028Z,4.27
2018-04-28T06:28:16.775Z,4.3
2018-04-28T06:29:26.780Z,4.32
2018-04-28T06:30:36.525Z,4.32
2018-04-28T06:31:46.007Z,4.22
2018-04-28T06:32:56.008Z,4.28
2018-04-28T06:34:06.079Z,4.24
2018-04-28T06:35:16.092Z,4.28
2018-04-28T06:36:26.167Z,4.25
2018-04-28T06:37:36.173Z,4.12
2018-04-28T06:38:46.177Z,4.18
2018-04-28T06:39:56.192Z,4.07
2018-04-28T06:41:05.967Z,4.2
2018-04-28T06:42:16.132Z,4.3
2018-04-28T06:43:26.149Z,4.4
2018-04-28T06:44:35.941Z,4.43
2018-04-28T06:45:45.943Z,4.52
2018-04-28T06:46:55.678Z,4.52
2018-04-28T06:48:05.160Z,4.4
2018-04-28T06:49:15.161Z,4.56
2018-04-28T06:50:25.172Z,4.66
2018-04-28T06:51:34.903Z,4.74
2018-04-28T06:52:44.646Z,4.76
2018-04-28T06:53:54.383Z,4.76
2018-04-28T06:55:04.120Z,4.75
2018-04-28T06:56:14.140Z,4.95
2018-04-28T06:57:24.155Z,5.02
2018-04-28T06:58:34.366Z,5
2018-04-28T06:59:44.591Z,5.13
2018-04-28T07:00:54.142Z,5.2
2018-04-28T07:02:04.163Z,5.36
2018-04-28T07:03:13.908Z,5.51
2018-04-28T07:04:23.643Z,5.7
2018-04-28T07:05:33.456Z,5.67
2018-04-28T07:06:43.200Z,5.74
2018-04-28T07:07:53.206Z,5.74
2018-04-28T07:09:02.944Z,5.8
2018-04-28T07:10:12.686Z,5.84
2018-04-28T07:11:22.426Z,5.64
2018-04-28T07:12:32.170Z,5.62
2018-04-28T07:13:42.180Z,5.62
2018-04-28T07:14:51.924Z,5.56
2018-04-28T07:16:01.931Z,5.37
2018-04-28T07:17:11.672Z,5.13
2018-04-28T07:18:21.687Z,5.02
2018-04-28T07:19:31.266Z,5.02
2018-04-28T07:20:41.024Z,5.22
2018-04-28T07:21:51.033Z,5.28
2018-04-28T07:23:01.039Z,5.23
2018-04-28T07:24:10.249Z,5.34
2018-04-28T07:25:19.990Z,5.23
2018-04-28T07:26:29.994Z,5.25
2018-04-28T07:27:39.197Z,5.23
2018-04-28T07:28:48.937Z,5.37
2018-04-28T07:29:58.942Z,5.4
2018-04-28T07:31:08.413Z,5.54
2018-04-28T07:32:18.155Z,5.72
2018-04-28T07:33:28.158Z,5.76
2018-04-28T07:34:37.957Z,5.87
2018-04-28T07:35:47.974Z,5.99
2018-04-28T07:36:57.451Z,6.17
2018-04-28T07:38:06.657Z,6.34
2018-04-28T07:39:16.662Z,6.36
2018-04-28T07:40:26.408Z,6.46
2018-04-28T07:41:36.411Z,6.25
2018-04-28T07:42:46.415Z,6.07
2018-04-28T07:43:56.158Z,6.17
2018-04-28T07:45:05.897Z,6.38
2018-04-28T07:46:15.644Z,6.46
2018-04-28T07:47:25.649Z,6.49
2018-04-28T07:48:35.660Z,6.56
2018-04-28T07:49:45.675Z,6.64
2018-04-28T07:50:55.692Z,6.6
2018-04-28T07:52:05.708Z,6.65
2018-04-28T07:53:15.445Z,6.6
2018-04-28T07:54:25.499Z,6.68
2018-04-28T07:55:34.968Z,6.68
2018-04-28T07:56:44.436Z,6.72
2018-04-28T07:57:54.178Z,6.71
2018-04-28T07:59:03.915Z,6.68
2018-04-28T08:00:13.724Z,6.72
2018-04-28T08:01:23.880Z,6.74
2018-04-28T08:02:33.893Z,6.8
2018-04-28T08:03:43.629Z,6.77
2018-04-28T08:04:53.647Z,6.75
2018-04-28T08:06:03.668Z,6.77
2018-04-28T08:07:13.575Z,6.77
2018-04-28T08:08:23.593Z,6.83
2018-04-28T08:09:33.605Z,6.74
2018-04-28T08:10:43.346Z,6.85
2018-04-28T08:11:53.188Z,6.82
2018-04-28T08:13:03.203Z,6.87
2018-04-28T08:14:12.404Z,6.95
2018-04-28T08:15:22.317Z,6.96
2018-04-28T08:16:32.066Z,6.97
2018-04-28T08:17:42.071Z,7.14
2018-04-28T08:18:52.079Z,7.03
2018-04-28T08:20:02.092Z,7.14
2018-04-28T08:21:11.564Z,7.13
2018-04-28T08:22:21.296Z,7.15
2018-04-28T08:23:31.316Z,7.13
2018-04-28T08:24:40.786Z,7.29
2018-04-28T08:25:50.528Z,7.31
2018-04-28T08:27:00.538Z,7.32
2018-04-28T08:28:10.280Z,7.46
2018-04-28T08:29:19.755Z,7.4
2018-04-28T08:30:29.762Z,7.4
2018-04-28T08:31:39.505Z,7.46
2018-04-28T08:32:49.515Z,7.48
2018-04-28T08:33:59.521Z,7.58
2018-04-28T08:35:08.994Z,7.48
2018-04-28T08:36:18.730Z,7.55
2018-04-28T08:37:28.937Z,7.59
2018-04-28T08:38:38.484Z,7.55
2018-04-28T08:39:48.231Z,7.7
2018-04-28T08:40:57.970Z,7.67
2018-04-28T08:42:07.448Z,7.67
2018-04-28T08:43:17.454Z,7.74
2018-04-28T08:44:27.500Z,7.75
2018-04-28T08:45:37.407Z,7.74
2018-04-28T08:46:47.556Z,7.84
2018-04-28T08:47:57.562Z,7.88
2018-04-28T08:49:07.307Z,7.96
2018-04-28T08:50:17.054Z,7.96
2018-04-28T08:51:27.065Z,7.96
2018-04-28T08:52:37.076Z,7.99
2018-04-28T08:53:46.823Z,8.06
2018-04-28T08:54:56.830Z,8.08
2018-04-28T08:56:06.302Z,8.05
2018-04-28T08:57:16.041Z,8.2
2018-04-28T08:58:25.783Z,8.21
2018-04-28T08:59:35.532Z,8.17
2018-04-28T09:00:45.539Z,8.05
2018-04-28T09:01:55.552Z,8.08
2018-04-28T09:03:05.305Z,7.93
2018-04-28T09:04:14.512Z,7.95
2018-04-28T09:05:24.253Z,7.9
2018-04-28T09:06:34.264Z,8.05
2018-04-28T09:07:44.280Z,8.03
2018-04-28T09:08:54.302Z,8.03
2018-04-28T09:10:04.312Z,8.02
2018-04-28T09:11:14.069Z,8.06
2018-04-28T09:12:23.848Z,8.18
2018-04-28T09:13:33.597Z,8.28
2018-04-28T09:14:43.608Z,8.21
2018-04-28T09:15:53.363Z,8.24
2018-04-28T09:17:03.432Z,8.21
2018-04-28T09:18:12.908Z,8.18
2018-04-28T09:19:22.508Z,8.18
2018-04-28T09:20:31.723Z,8.21
2018-04-28T09:21:41.197Z,8.17
2018-04-28T09:22:50.142Z,8.23
2018-04-28T09:23:59.886Z,8.26
2018-04-28T09:25:09.630Z,8.35
2018-04-28T09:26:18.862Z,8.41
2018-04-28T09:27:28.811Z,8.44
2018-04-28T09:28:38.282Z,8.45
2018-04-28T09:29:47.495Z,8.27
2018-04-28T09:30:57.250Z,8.31
2018-04-28T09:32:06.992Z,8.23
2018-04-28T09:33:16.735Z,8.28
2018-04-28T09:34:26.747Z,8.32
2018-04-28T09:35:36.488Z,8.36
2018-04-28T09:36:46.499Z,8.36
2018-04-28T09:37:56.507Z,8.44
2018-04-28T09:39:05.717Z,8.52
2018-04-28T09:40:15.723Z,8.36
2018-04-28T09:41:25.727Z,8.38
2018-04-28T09:42:35.205Z,8.42
2018-04-28T09:43:45.221Z,8.34
2018-04-28T09:44:55.023Z,8.32
2018-04-28T09:46:05.043Z,8.2
2018-04-28T09:47:14.782Z,8.34
2018-04-28T09:48:24.795Z,8.16
2018-04-28T09:49:34.535Z,8.13
2018-04-28T09:50:44.616Z,8.18
2018-04-28T09:51:54.711Z,8.09
2018-04-28T09:53:04.466Z,8.06
2018-04-28T09:54:14.553Z,8.14
2018-04-28T09:55:24.566Z,8.16
2018-04-28T09:56:34.582Z,8.2
2018-04-28T09:57:44.590Z,8.31
2018-04-28T09:58:54.062Z,8.39
2018-04-28T10:00:04.212Z,8.41
2018-04-28T10:01:13.154Z,8.45
2018-04-28T10:02:22.678Z,8.57
2018-04-28T10:03:32.421Z,8.52
2018-04-28T10:04:42.431Z,8.56
2018-04-28T10:05:52.330Z,8.68
2018-04-28T10:07:02.252Z,8.75
2018-04-28T10:08:11.994Z,8.81
2018-04-28T10:09:22.009Z,8.79
2018-04-28T10:10:31.760Z,8.87
2018-04-28T10:11:41.792Z,9
2018-04-28T10:12:52.008Z,9.11
2018-04-28T10:14:01.485Z,9.18
2018-04-28T10:15:10.958Z,9.36
2018-04-28T10:16:20.968Z,9.48
2018-04-28T10:17:30.975Z,9.55
2018-04-28T10:18:40.729Z,9.58
2018-04-28T10:19:50.300Z,9.69
2018-04-28T10:21:00.321Z,9.84
2018-04-28T10:22:09.794Z,9.77
2018-04-28T10:23:19.801Z,9.82
2018-04-28T10:24:29.905Z,9.8
2018-04-28T10:25:39.646Z,9.97
2018-04-28T10:26:49.392Z,9.95
2018-04-28T10:27:59.403Z,9.99
2018-04-28T10:29:09.420Z,10.03
2018-04-28T10:30:19.437Z,10.09
2018-04-28T10:31:29.177Z,10.15
2018-04-28T10:32:38.924Z,10.18
2018-04-28T10:33:48.406Z,10.21
2018-04-28T10:34:57.886Z,10.24
2018-04-28T10:36:07.633Z,10.18
2018-04-28T10:37:17.111Z,10.3
2018-04-28T10:38:26.901Z,10.36
2018-04-28T10:39:36.643Z,10.36
2018-04-28T10:40:46.392Z,10.55
2018-04-28T10:41:55.869Z,10.59
2018-04-28T10:43:05.607Z,10.61
2018-04-28T10:44:15.349Z,10.69
2018-04-28T10:45:25.092Z,10.67
2018-04-28T10:46:35.100Z,10.71
2018-04-28T10:47:44.844Z,10.72
2018-04-28T10:48:54.904Z,10.77
2018-04-28T10:50:04.916Z,10.68
2018-04-28T10:51:14.940Z,10.84
2018-04-28T10:52:24.696Z,10.87
2018-04-28T10:53:34.568Z,10.95
2018-04-28T10:54:44.618Z,10.94
2018-04-28T10:55:54.365Z,11
2018-04-28T10:57:04.384Z,11.12
2018-04-28T10:58:14.408Z,11.02
2018-04-28T10:59:24.207Z,11.05
2018-04-28T11:00:33.950Z,11.04
2018-04-28T11:01:43.706Z,11.15
2018-04-28T11:02:53.727Z,11.12
2018-04-28T11:04:03.502Z,11.12
2018-04-28T11:05:13.517Z,11.19
2018-04-28T11:06:23.767Z,11.19
2018-04-28T11:07:33.517Z,11.25
2018-04-28T11:08:43.533Z,11.41
2018-04-28T11:09:53.544Z,11.27
2018-04-28T11:11:03.559Z,11.35
2018-04-28T11:12:13.038Z,11.31
2018-04-28T11:13:22.613Z,11.34
2018-04-28T11:14:32.444Z,11.44
2018-04-28T11:15:41.921Z,11.43
2018-04-28T11:16:51.945Z,11.49
2018-04-28T11:18:01.961Z,11.45
2018-04-28T11:19:11.490Z,11.63
2018-04-28T11:20:21.236Z,11.6
2018-04-28T11:21:30.980Z,11.65
2018-04-28T11:22:40.724Z,11.62
2018-04-28T11:23:50.305Z,11.71
2018-04-28T11:25:00.391Z,11.81
2018-04-28T11:26:10.407Z,11.85
2018-04-28T11:27:20.419Z,11.81
2018-04-28T11:28:29.361Z,11.74
2018-04-28T11:29:39.373Z,11.74
2018-04-28T11:30:49.384Z,11.58
2018-04-28T11:31:59.395Z,11.3
2018-04-28T11:33:08.870Z,10.86
2018-04-28T11:34:18.345Z,10.82
2018-04-28T11:35:28.090Z,10.59
2018-04-28T11:36:37.833Z,10.41
2018-04-28T11:37:47.575Z,10.39
2018-04-28T11:38:57.602Z,10.28
2018-04-28T11:40:07.349Z,10.24
2018-04-28T11:41:17.091Z,10.3
2018-04-28T11:42:26.832Z,10.45
2018-04-28T11:43:36.662Z,10.51
2018-04-28T11:44:46.070Z,10.65
2018-04-28T11:45:55.545Z,10.82
2018-04-28T11:47:05.322Z,10.86
2018-04-28T11:48:14.798Z,11
2018-04-28T11:49:24.823Z,11.1
2018-04-28T11:50:34.840Z,11.3
2018-04-28T11:51:44.592Z,11.48
2018-04-28T11:52:54.331Z,11.52
2018-04-28T11:54:04.072Z,11.62
2018-04-28T11:55:13.819Z,11.65
2018-04-28T11:56:23.831Z,11.96
2018-04-28T11:57:33.870Z,11.93
2018-04-28T11:58:43.619Z,12.05
2018-04-28T11:59:53.704Z,11.99
2018-04-28T12:01:03.448Z,12.15
2018-04-28T12:02:13.198Z,12.26
2018-04-28T12:03:22.945Z,12.4
2018-04-28T12:04:32.686Z,12.43
2018-04-28T12:05:41.935Z,12.44
2018-04-28T12:06:51.923Z,12.48
2018-04-28T12:08:01.667Z,12.37
2018-04-28T12:09:11.142Z,12.43
2018-04-28T12:10:21.150Z,12.51
2018-04-28T12:11:30.629Z,12.65
2018-04-28T12:12:40.585Z,12.75
2018-04-28T12:13:50.779Z,13.02
2018-04-28T12:15:00.794Z,12.94
2018-04-28T12:16:10.824Z,12.9
2018-04-28T12:17:20.840Z,12.86
2018-04-28T12:18:30.849Z,12.93
2018-04-28T12:19:40.599Z,13.01
2018-04-28T12:20:50.621Z,13.13
2018-04-28T12:22:00.449Z,13.19
2018-04-28T12:23:09.931Z,13.31
2018-04-28T12:24:19.698Z,13.46
2018-04-28T12:25:29.183Z,13.75
2018-04-28T12:26:39.193Z,14.08
2018-04-28T12:27:49.561Z,14.49
2018-04-28T12:28:59.321Z,14.77
2018-04-28T12:30:08.633Z,15.04
2018-04-28T12:31:18.383Z,15.26
2018-04-28T12:32:27.867Z,15.5
2018-04-28T12:33:37.617Z,15.73
2018-04-28T12:34:47.641Z,15.78
2018-04-28T12:35:57.504Z,15.85
2018-04-28T12:37:07.802Z,15.83
2018-04-28T12:38:17.895Z,15.6
2018-04-28T12:39:27.948Z,15.62
2018-04-28T12:40:37.968Z,15.57
2018-04-28T12:41:47.720Z,15.41
2018-04-28T12:42:57.779Z,15.43
2018-04-28T12:44:07.259Z,15.44
2018-04-28T12:45:17.270Z,15.08
2018-04-28T12:46:26.749Z,15.02
2018-04-28T12:47:36.231Z,14.85
2018-04-28T12:48:46.247Z,14.94
2018-04-28T12:49:55.993Z,15.02
2018-04-28T12:51:05.744Z,15.1
2018-04-28T12:52:15.495Z,15.11
2018-04-28T12:53:25.511Z,15.04
2018-04-28T12:54:35.263Z,15.12
2018-04-28T12:55:44.742Z,15.14
2018-04-28T12:56:54.832Z,15.27
2018-04-28T12:58:04.842Z,15.33
2018-04-28T12:59:14.857Z,15.41
2018-04-28T13:00:24.872Z,15.33
2018-04-28T13:01:34.625Z,14.81
2018-04-28T13:02:44.371Z,14.61
2018-04-28T13:03:54.121Z,14.58
2018-04-28T13:05:04.136Z,14.16
2018-04-28T13:06:14.488Z,13.87
2018-04-28T13:07:24.513Z,13.79
2018-04-28T13:08:34.261Z,13.8
2018-04-28T13:09:44.273Z,13.6
2018-04-28T13:10:54.023Z,13.3
2018-04-28T13:12:03.792Z,13.45
2018-04-28T13:13:13.543Z,13.62
2018-04-28T13:14:23.395Z,13.75
2018-04-28T13:15:33.413Z,13.87
2018-04-28T13:16:43.432Z,14.11
2018-04-28T13:17:53.461Z,14.31
2018-04-28T13:19:03.476Z,14.34
2018-04-28T13:20:13.230Z,14.79
2018-04-28T13:21:23.254Z,15.05
2018-04-28T13:22:33.024Z,15.35
2018-04-28T13:23:43.049Z,15.35
2018-04-28T13:24:52.794Z,15.43
2018-04-28T13:26:02.812Z,15.33
2018-04-28T13:27:12.566Z,15.39
2018-04-28T13:28:22.044Z,15.35
2018-04-28T13:29:31.001Z,15.3
2018-04-28T13:30:41.018Z,15.29
2018-04-28T13:31:51.033Z,15.32
2018-04-28T13:33:00.778Z,15.27
2018-04-28T13:34:10.259Z,15.35
2018-04-28T13:35:20.015Z,15.3
2018-04-28T13:36:29.762Z,15.12
2018-04-28T13:37:39.512Z,15.25
2018-04-28T13:38:49.000Z,15.27
2018-04-28T13:39:59.014Z,15.41
2018-04-28T13:41:08.567Z,15.44
2018-04-28T13:42:18.522Z,15.48
2018-04-28T13:43:28.005Z,15.63
2018-04-28T13:44:38.020Z,15.73
2018-04-28T13:45:48.029Z,16.06
2018-04-28T13:46:58.045Z,16.21
2018-04-28T13:48:07.791Z,16.1
2018-04-28T13:49:17.721Z,16.4
2018-04-28T13:50:27.205Z,16.41
2018-04-28T13:51:36.952Z,16.72
2018-04-28T13:52:46.700Z,15.51
2018-04-28T13:53:56.714Z,15.18
2018-04-28T13:55:06.200Z,14.61
2018-04-28T13:56:15.952Z,14.05
2018-04-28T13:57:25.968Z,13.67
2018-04-28T13:58:35.716Z,13.46
2018-04-28T13:59:45.738Z,12.88
2018-04-28T14:00:55.753Z,12.57
2018-04-28T14:02:05.502Z,12.48
2018-04-28T14:03:14.985Z,12.3
2018-04-28T14:04:24.741Z,12.4
2018-04-28T14:05:34.757Z,12.02
2018-04-28T14:06:44.239Z,11.95
2018-04-28T14:07:54.263Z,11.91
2018-04-28T14:09:04.017Z,11.85
2018-04-28T14:10:14.040Z,11.38
2018-04-28T14:11:23.793Z,11.33
2018-04-28T14:12:33.537Z,11
2018-04-28T14:13:43.555Z,11.1
2018-04-28T14:14:53.301Z,10.79
2018-04-28T14:16:02.783Z,10.65
2018-04-28T14:17:11.997Z,10.89
2018-04-28T14:18:22.033Z,11.01
2018-04-28T14:19:32.058Z,11.08
2018-04-28T14:20:42.078Z,11.2
2018-04-28T14:21:51.830Z,11.31
2018-04-28T14:23:01.585Z,11.49
2018-04-28T14:24:11.433Z,11.27
2018-04-28T14:25:21.182Z,11.62
2018-04-28T14:26:30.986Z,12.18
2018-04-28T14:27:40.194Z,12.63
2018-04-28T14:28:49.675Z,13.13
2018-04-28T14:29:59.685Z,13.47
2018-04-28T14:31:09.430Z,13.76
2018-04-28T14:32:18.642Z,13.8
2018-04-28T14:33:28.397Z,14.05
2018-04-28T14:34:38.416Z,14.51
2018-04-28T14:35:48.442Z,14.92
2018-04-28T14:36:58.201Z,15.07
2018-04-28T14:38:08.221Z,15.62
2018-04-28T14:39:18.236Z,15.41
2018-04-28T14:40:28.280Z,15.67
2018-04-28T14:41:38.311Z,16.22
2018-04-28T14:42:48.337Z,16.62
2018-04-28T14:43:58.354Z,16.13
2018-04-28T14:45:08.106Z,16
2018-04-28T14:46:18.257Z,16.8
2018-04-28T14:47:28.096Z,17.1
2018-04-28T14:48:38.112Z,17.42
2018-04-28T14:49:47.599Z,17.87
2018-04-28T14:50:57.350Z,17.82
2018-04-28T14:52:06.840Z,18.28
2018-04-28T14:53:16.589Z,17.97
2018-04-28T14:54:26.338Z,17.3
2018-04-28T14:55:36.102Z,16.62
2018-04-28T14:56:46.131Z,15.3
2018-04-28T14:57:56.149Z,14.66
2018-04-28T14:59:06.273Z,14.01
2018-04-28T15:00:16.040Z,13.28
2018-04-28T15:01:26.192Z,12.87
2018-04-28T15:02:36.217Z,12.69
2018-04-28T15:03:46.238Z,12.62
2018-04-28T15:04:56.257Z,12.47
2018-04-28T15:06:06.009Z,12.44
2018-04-28T15:07:16.020Z,12.32
2018-04-28T15:08:25.767Z,11.97
2018-04-28T15:09:35.655Z,12.08
2018-04-28T15:10:45.915Z,11.73
2018-04-28T15:11:55.682Z,11.6
2018-04-28T15:13:05.704Z,11.43
2018-04-28T15:14:15.449Z,11.27
2018-04-28T15:15:25.464Z,10.92
2018-04-28T15:16:34.948Z,10.69
2018-04-28T15:17:45.011Z,10.41
2018-04-28T15:18:54.491Z,10.13
2018-04-28T15:20:04.270Z,9.9
2018-04-28T15:21:14.020Z,9.77
2018-04-28T15:22:23.506Z,9.58
2018-04-28T15:23:33.517Z,9.3
2018-04-28T15:24:43.259Z,9.26
2018-04-28T15:25:53.005Z,9.13